createdAt,value
2022-09-01T00:01:41.415Z,4.27
2022-09-01T00:04:11.212Z,2.87
2022-09-01T00:06:38.509Z,2.80
2022-09-01T00:09:10.320Z,2.70
2022-09-01T00:11:37.348Z,2.90
2022-09-01T00:14:06.715Z,2.77
2022-09-01T00:16:47.218Z,2.83
2022-09-01T00:19:18.499Z,2.70
2022-09-01T00:21:46.029Z,3.27
2022-09-01T00:24:15.030Z,3.00
2022-09-01T00:26:41.930Z,2.60
2022-09-01T00:29:08.478Z,2.77
2022-09-01T00:31:35.271Z,2.60
2022-09-01T00:34:02.236Z,6.33
2022-09-01T00:36:29.477Z,2.73
2022-09-01T00:38:56.509Z,2.80
2022-09-01T00:41:26.125Z,4.00
2022-09-01T00:44:01.874Z,2.97
2022-09-01T00:46:36.532Z,2.50
2022-09-01T00:49:35.141Z,3.10
2022-09-01T00:52:09.344Z,3.00
2022-09-01T00:54:39.990Z,3.20
2022-09-01T00:57:09.100Z,3.30
2022-09-01T00:59:40.856Z,2.87
2022-09-01T01:02:07.545Z,4.40
2022-09-01T01:04:34.128Z,3.13
2022-09-01T01:07:02.745Z,2.50
2022-09-01T01:09:32.900Z,3.33
2022-09-01T01:12:02.247Z,4.00
2022-09-01T01:14:31.832Z,2.80
2022-09-01T01:17:00.328Z,4.97
2022-09-01T01:20:01.975Z,2.77
2022-09-01T01:22:59.831Z,2.60
2022-09-01T01:25:27.893Z,2.30
2022-09-01T01:28:07.082Z,2.40
2022-09-01T01:30:36.987Z,3.60
2022-09-01T01:33:04.619Z,2.43
2022-09-01T01:35:31.941Z,3.37
2022-09-01T01:37:58.656Z,2.60
2022-09-01T01:40:25.968Z,2.53
2022-09-01T01:42:54.297Z,2.33
2022-09-01T01:45:23.558Z,2.70
2022-09-01T01:47:56.366Z,2.40
2022-09-01T01:50:34.509Z,3.73
2022-09-01T01:53:11.272Z,2.90
2022-09-01T01:55:40.479Z,2.73
2022-09-01T01:58:12.033Z,2.20
2022-09-01T02:00:39.686Z,2.73
2022-09-01T02:03:07.459Z,2.70
2022-09-01T02:05:36.216Z,2.60
2022-09-01T02:08:05.980Z,2.30
2022-09-01T02:10:35.863Z,2.70
2022-09-01T02:13:07.056Z,2.70
2022-09-01T02:15:43.630Z,2.50
2022-09-01T02:18:34.162Z,2.40
2022-09-01T02:21:15.189Z,2.30
2022-09-01T02:23:46.637Z,2.20
2022-09-01T02:26:17.415Z,2.53
2022-09-01T02:28:54.281Z,3.20
2022-09-01T02:31:27.880Z,2.43
2022-09-01T02:33:55.292Z,2.93
2022-09-01T02:36:25.166Z,4.20
2022-09-01T02:38:56.395Z,2.60
2022-09-01T02:41:27.123Z,2.50
2022-09-01T02:43:55.842Z,2.03
2022-09-01T02:46:24.561Z,2.47
2022-09-01T02:48:52.683Z,4.33
2022-09-01T02:51:23.676Z,2.17
2022-09-01T02:53:52.531Z,2.50
2022-09-01T02:56:23.897Z,2.50
2022-09-01T02:58:53.368Z,2.43
2022-09-01T03:01:30.137Z,2.30
2022-09-01T03:04:04.069Z,2.20
2022-09-01T03:06:34.066Z,2.37
2022-09-01T03:09:04.122Z,2.63
2022-09-01T03:11:32.660Z,2.43
2022-09-01T03:13:59.808Z,3.10
2022-09-01T03:16:30.321Z,2.03
2022-09-01T03:18:57.492Z,4.13
2022-09-01T03:21:24.145Z,2.13
2022-09-01T03:23:52.003Z,2.63
2022-09-01T03:26:22.009Z,2.33
2022-09-01T03:28:51.040Z,3.47
2022-09-01T03:31:19.561Z,2.10
2022-09-01T03:33:47.824Z,2.40
2022-09-01T03:36:28.386Z,2.47
2022-09-01T03:38:56.825Z,2.30
2022-09-01T03:41:30.981Z,2.27
2022-09-01T03:43:59.454Z,2.83
2022-09-01T03:46:36.388Z,2.50
2022-09-01T03:49:07.510Z,2.37
2022-09-01T03:51:38.899Z,1.90
2022-09-01T03:54:06.205Z,3.00
2022-09-01T03:56:34.242Z,2.17
2022-09-01T03:59:01.134Z,3.60
2022-09-01T04:01:38.064Z,2.77
2022-09-01T04:04:06.569Z,2.83
2022-09-01T04:06:33.296Z,2.23
2022-09-01T04:09:03.160Z,2.70
2022-09-01T04:11:33.759Z,2.93
2022-09-01T04:14:01.607Z,2.50
2022-09-01T04:16:51.663Z,2.50
2022-09-01T04:19:25.550Z,2.37
2022-09-01T04:21:59.732Z,2.60
2022-09-01T04:24:31.753Z,2.03
2022-09-01T04:27:02.139Z,2.33
2022-09-01T04:29:31.902Z,2.40
2022-09-01T04:32:06.645Z,2.50
2022-09-01T04:34:38.171Z,2.83
2022-09-01T04:37:14.806Z,2.47
2022-09-01T04:39:51.345Z,2.00
2022-09-01T04:42:23.965Z,2.40
2022-09-01T04:44:52.942Z,2.90
2022-09-01T04:47:19.806Z,2.47
2022-09-01T04:49:49.825Z,2.50
2022-09-01T04:52:17.652Z,2.17
2022-09-01T04:54:44.914Z,2.43
2022-09-01T04:57:11.746Z,4.60
2022-09-01T04:59:38.382Z,2.40
2022-09-01T05:02:07.818Z,3.97
2022-09-01T05:04:35.834Z,2.43
2022-09-01T05:07:04.872Z,2.40
2022-09-01T05:09:37.129Z,2.30
2022-09-01T05:12:16.564Z,2.70
2022-09-01T05:14:48.374Z,3.17
2022-09-01T05:17:18.668Z,3.57
2022-09-01T05:19:48.511Z,2.57
2022-09-01T05:22:21.946Z,2.77
2022-09-01T05:25:14.173Z,4.60
2022-09-01T05:27:52.490Z,2.90
2022-09-01T05:30:22.186Z,3.00
2022-09-01T05:32:49.111Z,4.77
2022-09-01T05:35:16.501Z,3.63
2022-09-01T05:37:43.465Z,3.60
2022-09-01T05:40:16.051Z,8.63
2022-09-01T05:42:44.122Z,5.20
2022-09-01T05:45:15.171Z,5.37
2022-09-01T05:47:42.473Z,4.40
2022-09-01T05:50:14.258Z,5.63
2022-09-01T05:52:44.468Z,9.13
2022-09-01T05:55:11.407Z,5.17
2022-09-01T05:57:41.949Z,6.20
2022-09-01T06:00:13.284Z,5.20
2022-09-01T06:02:42.721Z,4.30
2022-09-01T06:05:15.153Z,6.97
2022-09-01T06:07:42.909Z,5.73
2022-09-01T06:10:11.005Z,5.23
2022-09-01T06:12:38.416Z,4.57
2022-09-01T06:15:15.625Z,4.60
2022-09-01T06:17:45.952Z,4.70
2022-09-01T06:20:14.022Z,4.60
2022-09-01T06:22:43.774Z,4.73
2022-09-01T06:25:10.965Z,4.93
2022-09-01T06:27:44.382Z,5.07
2022-09-01T06:30:20.117Z,4.83
2022-09-01T06:32:54.530Z,4.17
2022-09-01T06:35:22.202Z,6.67
2022-09-01T06:37:48.987Z,6.73
2022-09-01T06:40:34.252Z,5.30
2022-09-01T06:43:02.217Z,4.83
2022-09-01T06:45:30.016Z,5.70
2022-09-01T06:47:57.686Z,8.57
2022-09-01T06:53:34.550Z,8.93
2022-09-01T06:56:04.035Z,7.03
2022-09-01T06:58:31.144Z,6.77
2022-09-01T07:00:57.821Z,9.57
2022-09-01T07:03:25.937Z,6.53
2022-09-01T07:09:22.197Z,6.23
2022-09-01T07:12:25.654Z,8.33
2022-09-01T07:17:42.302Z,4.67
2022-09-01T07:20:26.769Z,7.20
2022-09-01T07:23:04.760Z,5.33
2022-09-01T07:25:48.409Z,3.93
2022-09-01T07:28:37.609Z,4.17
2022-09-01T07:34:37.647Z,3.43
2022-09-01T07:39:51.515Z,4.93
2022-09-01T07:45:58.379Z,3.40
2022-09-01T07:51:35.988Z,4.10
2022-09-01T07:54:05.037Z,3.30
2022-09-01T07:56:34.199Z,3.53
2022-09-01T07:59:03.345Z,2.70
2022-09-01T08:01:34.822Z,2.80
2022-09-01T08:04:04.420Z,3.23
2022-09-01T08:06:37.931Z,5.67
2022-09-01T08:09:11.614Z,3.30
2022-09-01T08:12:01.211Z,2.53
2022-09-01T08:14:26.003Z,2.60
2022-09-01T08:16:53.264Z,2.50
2022-09-01T08:19:20.586Z,1.93
2022-09-01T08:22:04.982Z,3.63
2022-09-01T08:24:50.709Z,4.90
2022-09-01T08:27:18.405Z,3.10
2022-09-01T08:29:45.310Z,2.10
2022-09-01T08:32:13.036Z,2.97
2022-09-01T08:34:39.814Z,3.47
2022-09-01T08:37:06.777Z,3.07
2022-09-01T08:39:34.185Z,5.03
2022-09-01T08:42:30.041Z,3.60
2022-09-01T08:45:13.073Z,2.57
2022-09-01T08:48:04.624Z,1.90
2022-09-01T08:50:26.830Z,2.27
2022-09-01T08:53:58.983Z,2.23
2022-09-01T08:56:27.054Z,2.70
2022-09-01T08:58:54.301Z,2.20
2022-09-01T09:01:43.783Z,2.80
2022-09-01T09:04:22.292Z,2.17
2022-09-01T09:07:05.749Z,2.47
2022-09-01T09:09:51.122Z,2.70
2022-09-01T09:12:49.884Z,2.33
2022-09-01T09:15:27.671Z,2.00
2022-09-01T09:18:19.879Z,2.13
2022-09-01T09:20:53.254Z,2.13
2022-09-01T09:23:36.693Z,3.10
2022-09-01T09:26:03.648Z,3.07
2022-09-01T09:28:30.181Z,2.63
2022-09-01T09:31:25.880Z,2.00
2022-09-01T09:33:53.661Z,1.97
2022-09-01T09:36:33.397Z,2.03
2022-09-01T09:39:16.897Z,1.67
2022-09-01T09:41:48.386Z,2.53
2022-09-01T09:44:23.061Z,2.00
2022-09-01T09:46:49.896Z,2.47
2022-09-01T09:49:21.606Z,2.53
2022-09-01T09:52:03.271Z,1.77
2022-09-01T09:54:33.171Z,1.83
2022-09-01T09:57:09.035Z,1.60
2022-09-01T09:59:57.745Z,2.17
2022-09-01T10:02:45.945Z,2.50
2022-09-01T10:05:39.094Z,2.47
2022-09-01T10:08:10.937Z,1.50
2022-09-01T10:10:40.353Z,1.73
2022-09-01T10:13:10.850Z,1.70
2022-09-01T10:15:38.872Z,2.40
2022-09-01T10:18:29.098Z,1.80
2022-09-01T10:21:02.696Z,1.97
2022-09-01T10:23:34.697Z,2.57
2022-09-01T10:26:09.464Z,1.93
2022-09-01T10:28:49.620Z,1.93
2022-09-01T10:31:18.756Z,4.10
2022-09-01T10:33:46.218Z,1.60
2022-09-01T10:36:15.756Z,1.50
2022-09-01T10:38:50.328Z,1.77
2022-09-01T10:41:43.322Z,1.50
2022-09-01T10:44:19.315Z,1.60
2022-09-01T10:46:50.778Z,1.83
2022-09-01T10:49:29.664Z,2.87
2022-09-01T10:52:03.205Z,1.90
2022-09-01T10:54:50.859Z,2.70
2022-09-01T10:57:43.255Z,1.60
2022-09-01T11:00:36.651Z,1.60
2022-09-01T11:06:13.283Z,2.70
2022-09-01T11:08:50.986Z,1.80
2022-09-01T11:11:34.410Z,3.43
2022-09-01T11:14:01.594Z,1.87
2022-09-01T11:16:49.565Z,2.93
2022-09-01T11:19:28.764Z,2.87
2022-09-01T11:22:22.277Z,3.23
2022-09-01T11:25:12.613Z,5.97
2022-09-01T11:27:48.738Z,2.33
2022-09-01T11:30:22.238Z,2.07
2022-09-01T11:32:58.556Z,3.80
2022-09-01T11:35:28.334Z,1.77
2022-09-01T11:38:04.468Z,3.40
2022-09-01T11:40:34.552Z,3.47
2022-09-01T11:43:16.669Z,1.80
2022-09-01T11:46:17.313Z,3.67
2022-09-01T11:48:51.918Z,4.33
2022-09-01T11:51:19.085Z,3.53
2022-09-01T11:53:45.738Z,1.80
2022-09-01T11:56:20.085Z,3.93
2022-09-01T11:58:47.437Z,1.63
2022-09-01T12:01:33.149Z,2.40
2022-09-01T12:04:22.303Z,1.67
2022-09-01T12:07:11.233Z,2.70
2022-09-01T12:09:47.888Z,1.97
2022-09-01T12:12:36.392Z,1.87
2022-09-01T12:15:23.767Z,1.90
2022-09-01T12:17:50.931Z,1.97
2022-09-01T12:20:21.264Z,1.97
2022-09-01T12:22:49.974Z,1.70
2022-09-01T12:25:26.603Z,5.93
2022-09-01T12:27:53.602Z,1.83
2022-09-01T12:30:21.583Z,2.23
2022-09-01T12:32:48.593Z,2.07
2022-09-01T12:35:25.109Z,1.60
2022-09-01T12:37:52.911Z,1.70
2022-09-01T12:40:31.009Z,1.70
2022-09-01T12:42:57.666Z,1.67
2022-09-01T12:45:45.124Z,2.10
2022-09-01T12:48:30.727Z,2.20
2022-09-01T12:51:00.967Z,1.83
2022-09-01T12:53:31.674Z,1.90
2022-09-01T12:56:02.709Z,1.90
2022-09-01T12:58:31.792Z,1.47
2022-09-01T13:01:10.163Z,1.70
2022-09-01T13:03:42.865Z,2.43
2022-09-01T13:06:09.984Z,1.87
2022-09-01T13:08:37.825Z,1.47
2022-09-01T13:11:11.525Z,1.70
2022-09-01T13:13:38.258Z,1.53
2022-09-01T13:16:12.295Z,2.93
2022-09-01T13:21:29.024Z,2.13
2022-09-01T13:23:55.981Z,2.27
2022-09-01T13:26:22.698Z,2.27
2022-09-01T13:28:49.956Z,2.87
2022-09-01T13:31:32.559Z,7.83
2022-09-01T13:34:22.941Z,4.97
2022-09-01T13:36:51.062Z,4.83
2022-09-01T13:39:18.947Z,3.40
2022-09-01T13:41:47.057Z,3.87
2022-09-01T13:44:14.102Z,2.63
2022-09-01T13:50:05.127Z,2.80
2022-09-01T13:52:14.970Z,1.67
2022-09-01T13:54:44.224Z,3.00
2022-09-01T13:57:14.943Z,1.90
2022-09-01T13:59:41.878Z,1.70
2022-09-01T14:02:08.588Z,2.70
2022-09-01T14:04:35.297Z,1.57
2022-09-01T14:07:02.342Z,1.77
2022-09-01T14:09:28.934Z,1.77
2022-09-01T14:11:55.711Z,3.57
2022-09-01T14:14:22.733Z,2.80
2022-09-01T14:16:49.422Z,1.70
2022-09-01T14:19:16.376Z,2.47
2022-09-01T14:21:44.230Z,1.50
2022-09-01T14:24:12.899Z,1.63
2022-09-01T14:26:41.373Z,2.50
2022-09-01T14:29:08.319Z,3.97
2022-09-01T14:31:37.649Z,2.50
2022-09-01T14:34:04.835Z,2.43
2022-09-01T14:36:31.561Z,2.33
2022-09-01T14:38:59.415Z,1.47
2022-09-01T14:41:26.915Z,1.43
2022-09-01T14:44:02.332Z,2.37
2022-09-01T14:46:30.963Z,1.77
2022-09-01T14:48:57.765Z,1.77
2022-09-01T14:52:10.201Z,2.37
2022-09-01T14:54:14.254Z,3.43
2022-09-01T14:56:41.923Z,1.60
2022-09-01T14:59:08.867Z,2.67
2022-09-01T15:01:37.110Z,2.03
2022-09-01T15:04:05.497Z,1.40
2022-09-01T15:06:33.857Z,1.70
2022-09-01T15:09:00.630Z,1.50
2022-09-01T15:11:28.418Z,1.43
2022-09-01T15:13:55.404Z,1.63
2022-09-01T15:16:25.375Z,1.70
2022-09-01T15:18:52.536Z,2.00
2022-09-01T15:21:30.645Z,2.67
2022-09-01T15:23:57.735Z,2.23
2022-09-01T15:26:25.424Z,1.43
2022-09-01T15:28:52.588Z,1.53
2022-09-01T15:31:32.238Z,1.27
2022-09-01T15:34:13.241Z,3.23
2022-09-01T15:38:03.208Z,1.30
2022-09-01T15:40:32.417Z,1.30
2022-09-01T15:43:00.463Z,2.37
2022-09-01T15:45:29.405Z,2.13
2022-09-01T15:47:59.467Z,1.47
2022-09-01T15:50:28.629Z,1.50
2022-09-01T15:52:58.619Z,1.40
2022-09-01T15:55:43.917Z,3.27
2022-09-01T15:58:16.342Z,1.30
2022-09-01T16:00:45.259Z,1.57
2022-09-01T16:03:12.577Z,1.87
2022-09-01T16:05:40.880Z,2.63
2022-09-01T16:08:11.235Z,1.67
2022-09-01T16:10:40.006Z,1.60
2022-09-01T16:13:10.748Z,2.30
2022-09-01T16:15:51.365Z,2.93
2022-09-01T16:18:41.754Z,2.53
2022-09-01T16:21:21.442Z,2.90
2022-09-01T16:24:06.465Z,1.70
2022-09-01T16:26:36.046Z,2.77
2022-09-01T16:29:12.458Z,1.23
2022-09-01T16:36:23.786Z,4.90
2022-09-01T16:39:08.546Z,5.80
2022-09-01T16:42:04.623Z,3.47
2022-09-01T16:45:20.786Z,3.10
2022-09-01T16:48:19.097Z,3.03
2022-09-01T16:51:06.543Z,4.30
2022-09-01T16:53:53.085Z,3.57
2022-09-01T16:56:24.686Z,5.47
2022-09-01T17:02:15.696Z,4.73
2022-09-01T17:04:46.690Z,3.47
2022-09-01T17:07:19.922Z,3.60
2022-09-01T17:10:12.834Z,2.90
2022-09-01T17:12:50.449Z,4.67
2022-09-01T17:15:31.584Z,4.13
2022-09-01T17:18:23.081Z,2.50
2022-09-01T17:20:58.492Z,2.27
2022-09-01T17:23:28.947Z,3.47
2022-09-01T17:26:01.628Z,3.53
2022-09-01T17:28:45.837Z,3.40
2022-09-01T17:31:33.883Z,2.87
2022-09-01T17:34:23.111Z,2.60
2022-09-01T17:36:58.077Z,3.70
2022-09-01T17:39:36.427Z,2.43
2022-09-01T17:42:21.467Z,2.60
2022-09-01T17:44:56.091Z,3.67
2022-09-01T17:47:26.980Z,4.90
2022-09-01T17:50:36.228Z,4.53
2022-09-01T17:53:14.013Z,3.83
2022-09-01T17:55:54.537Z,4.57
2022-09-01T17:58:46.074Z,4.40
2022-09-01T18:01:37.025Z,11.27
2022-09-01T18:04:31.558Z,6.93
2022-09-01T18:07:04.189Z,6.07
2022-09-01T18:09:42.180Z,5.43
2022-09-01T18:12:13.279Z,3.80
2022-09-01T18:15:11.694Z,4.50
2022-09-01T18:17:45.490Z,5.87
2022-09-01T18:20:45.495Z,5.10
2022-09-01T18:23:15.306Z,9.43
2022-09-01T18:25:47.254Z,8.80
2022-09-01T18:28:15.305Z,10.80
2022-09-01T18:30:55.193Z,7.00
2022-09-01T18:33:49.143Z,5.40
2022-09-01T18:36:30.690Z,6.63
2022-09-01T18:39:07.937Z,6.07
2022-09-01T18:41:57.843Z,5.23
2022-09-01T18:44:36.820Z,5.07
2022-09-01T18:47:10.198Z,3.93
2022-09-01T18:49:46.537Z,3.23
2022-09-01T18:52:35.093Z,3.53
2022-09-01T18:55:23.158Z,4.07
2022-09-01T18:57:53.229Z,3.17
2022-09-01T19:00:21.695Z,3.13
2022-09-01T19:03:27.016Z,2.53
2022-09-01T19:06:23.963Z,2.47
2022-09-01T19:08:53.190Z,3.67
2022-09-01T19:11:43.899Z,5.67
2022-09-01T19:14:40.120Z,1.80
2022-09-01T19:17:16.289Z,4.07
2022-09-01T19:19:51.623Z,2.70
2022-09-01T19:22:33.233Z,2.87
2022-09-01T19:25:23.823Z,2.60
2022-09-01T19:28:07.037Z,4.87
2022-09-01T19:30:41.418Z,3.23
2022-09-01T19:33:12.294Z,4.60
2022-09-01T19:35:42.703Z,4.13
2022-09-01T19:38:16.585Z,4.00
2022-09-01T19:40:44.510Z,5.43
2022-09-01T19:43:17.864Z,5.33
2022-09-01T19:45:45.995Z,2.97
2022-09-01T19:48:23.736Z,3.60
2022-09-01T19:50:56.449Z,3.40
2022-09-01T19:53:37.104Z,3.53
2022-09-01T19:56:13.297Z,6.53
2022-09-01T19:58:59.473Z,4.50
2022-09-01T20:01:46.212Z,22.83
2022-09-01T20:04:27.153Z,46.20
2022-09-01T20:07:00.173Z,56.83
2022-09-01T20:09:57.740Z,61.40
2022-09-01T20:12:40.030Z,60.87
2022-09-01T20:15:35.902Z,43.60
2022-09-01T20:18:07.642Z,38.50
2022-09-01T20:20:47.445Z,36.60
2022-09-01T20:23:27.525Z,31.07
2022-09-01T20:26:01.163Z,28.43
2022-09-01T20:28:52.735Z,26.07
2022-09-01T20:31:45.421Z,22.17
2022-09-01T20:34:20.121Z,19.73
2022-09-01T20:36:54.253Z,17.07
2022-09-01T20:39:54.126Z,15.97
2022-09-01T20:42:31.288Z,15.00
2022-09-01T20:45:10.645Z,13.23
2022-09-01T20:47:37.274Z,11.80
2022-09-01T20:50:11.458Z,10.67
2022-09-01T20:52:57.430Z,6.30
2022-09-01T20:55:28.781Z,7.47
2022-09-01T20:58:19.834Z,6.57
2022-09-01T21:01:00.808Z,6.00
2022-09-01T21:03:47.173Z,5.70
2022-09-01T21:06:19.489Z,4.53
2022-09-01T21:08:53.204Z,5.20
2022-09-01T21:11:43.745Z,4.70
2022-09-01T21:14:37.146Z,3.70
2022-09-01T21:17:21.780Z,4.27
2022-09-01T21:20:02.761Z,3.60
2022-09-01T21:22:29.693Z,3.80
2022-09-01T21:24:56.482Z,3.97
2022-09-01T21:27:31.094Z,3.80
2022-09-01T21:30:10.126Z,3.10
2022-09-01T21:32:37.554Z,3.50
2022-09-01T21:35:06.414Z,3.00
2022-09-01T21:37:33.017Z,2.80
2022-09-01T21:39:59.790Z,3.77
2022-09-01T21:42:49.730Z,2.93
2022-09-01T21:45:18.797Z,2.27
2022-09-01T21:47:46.847Z,2.70
2022-09-01T21:50:15.345Z,3.67
2022-09-01T21:52:42.219Z,2.63
2022-09-01T21:55:09.123Z,3.43
2022-09-01T21:57:37.157Z,2.93
2022-09-01T22:00:31.824Z,3.47
2022-09-01T22:02:59.401Z,2.50
2022-09-01T22:05:26.610Z,2.37
2022-09-01T22:07:55.858Z,4.90
2022-09-01T22:10:26.027Z,2.10
2022-09-01T22:12:53.859Z,2.17
2022-09-01T22:15:23.857Z,2.43
2022-09-01T22:17:51.551Z,2.97
2022-09-01T22:20:22.207Z,2.10
2022-09-01T22:22:49.946Z,3.10
2022-09-01T22:25:21.122Z,1.90
2022-09-01T22:27:47.777Z,2.90
2022-09-01T22:30:14.912Z,4.53
2022-09-01T22:32:45.137Z,1.67
2022-09-01T22:35:13.310Z,3.07
2022-09-01T22:37:40.121Z,1.70
2022-09-01T22:40:08.594Z,2.40
2022-09-01T22:42:36.084Z,2.40
2022-09-01T22:45:03.810Z,2.63
2022-09-01T22:47:30.367Z,3.77
2022-09-01T22:49:58.758Z,2.30
2022-09-01T22:52:25.483Z,4.63
2022-09-01T22:54:52.288Z,2.20
2022-09-01T22:57:20.151Z,2.30
2022-09-01T22:59:46.856Z,3.47
2022-09-01T23:02:13.498Z,2.40
2022-09-01T23:04:42.261Z,2.30
2022-09-01T23:07:09.157Z,2.53
2022-09-01T23:09:35.987Z,1.80
2022-09-01T23:12:02.796Z,2.00
2022-09-01T23:14:29.477Z,2.27
2022-09-01T23:16:56.242Z,2.47
2022-09-01T23:19:23.834Z,2.47
2022-09-01T23:21:51.586Z,4.90
2022-09-01T23:24:19.771Z,3.63
2022-09-01T23:27:12.129Z,1.83
2022-09-01T23:29:38.693Z,2.27
2022-09-01T23:32:05.449Z,1.60
2022-09-01T23:34:32.074Z,1.97
2022-09-01T23:36:58.697Z,2.80
2022-09-01T23:39:25.458Z,2.03
2022-09-01T23:41:52.045Z,1.80
2022-09-01T23:44:18.734Z,2.10
2022-09-01T23:46:47.050Z,1.50
2022-09-01T23:49:15.268Z,2.70
2022-09-01T23:51:43.002Z,2.03
2022-09-01T23:54:10.668Z,2.10
2022-09-01T23:56:38.154Z,2.27
2022-09-01T23:59:05.580Z,2.13
